Time;durP1;ratioP1;P1;durP2;ratioP2;P2;SDS_P1;SDS_P2;PMS_P1;PMS_P2;Temp;Humidity;BMP_temperature;BMP_pressure;BME280_temperature;BME280_humidity;BME280_pressure;Samples;Min_cycle;Max_cycle;Signal;HPM_P1;HPM_P2
2024/01/05 00:01:25;;;;;;;18.17;9.73;;;2.70;99.90;;;;;;5083681;28;20044;-65
2024/01/05 00:03:51;;;;;;;17.80;10.60;;;2.60;99.90;;;;;;5096304;28;20036;-65
2024/01/05 00:06:20;;;;;;;17.95;9.65;;;2.60;99.90;;;;;;5089243;28;20606;-66
2024/01/05 00:08:46;;;;;;;18.70;9.80;;;2.70;99.90;;;;;;5095878;28;20055;-68
2024/01/05 00:11:19;;;;;;;18.42;10.60;;;2.60;99.90;;;;;;5086364;28;20040;-65
2024/01/05 00:13:45;;;;;;;18.42;9.75;;;2.60;99.90;;;;;;5095859;28;20044;-65
2024/01/05 00:16:18;;;;;;;19.55;10.15;;;2.70;99.90;;;;;;5096276;28;20543;-64
2024/01/05 00:18:45;;;;;;;23.05;10.43;;;2.60;99.90;;;;;;5088388;28;20044;-65
2024/01/05 00:21:31;;;;;;;20.50;10.52;;;2.60;99.90;;;;;;5076747;28;20087;-64
2024/01/05 00:23:56;;;;;;;20.15;10.60;;;2.70;99.90;;;;;;5094831;28;20138;-64
2024/01/05 00:26:25;;;;;;;20.52;11.50;;;3.40;99.90;;;;;;5099459;28;20052;-64
2024/01/05 00:28:51;;;;;;;23.33;10.43;;;2.60;99.90;;;;;;5099545;28;20153;-64
2024/01/05 00:31:17;;;;;;;20.65;10.02;;;2.60;99.90;;;;;;5104134;28;20670;-64
2024/01/05 00:33:44;;;;;;;19.25;11.18;;;2.60;99.90;;;;;;5106082;28;20036;-64
2024/01/05 00:36:10;;;;;;;20.60;10.80;;;2.60;99.90;;;;;;5105939;28;20132;-65
2024/01/05 00:38:37;;;;;;;20.65;10.27;;;2.60;99.90;;;;;;5108098;28;20096;-64
2024/01/05 00:41:03;;;;;;;26.90;11.40;;;2.60;99.90;;;;;;5108294;28;20062;-64
2024/01/05 00:43:29;;;;;;;21.98;11.55;;;2.60;99.90;;;;;;5099967;28;20048;-63
2024/01/05 00:45:55;;;;;;;18.65;11.05;;;2.60;99.90;;;;;;5100019;28;20055;-66
2024/01/05 00:48:22;;;;;;;23.10;11.23;;;2.60;99.90;;;;;;5109764;28;20079;-64
2024/01/05 00:50:47;;;;;;;22.58;12.07;;;2.60;99.90;;;;;;5109916;28;20108;-64
2024/01/05 00:53:13;;;;;;;22.15;11.40;;;2.50;99.90;;;;;;5108038;28;20091;-64
2024/01/05 00:55:39;;;;;;;25.58;11.75;;;2.50;99.90;;;;;;5108116;28;20047;-65
2024/01/05 00:58:05;;;;;;;27.75;12.23;;;2.50;99.90;;;;;;5107293;28;20522;-65
2024/01/05 01:00:31;;;;;;;22.80;10.80;;;2.50;99.90;;;;;;5107882;28;20039;-65
2024/01/05 01:02:57;;;;;;;24.02;11.35;;;2.50;99.90;;;;;;5109079;28;20497;-64
2024/01/05 01:05:23;;;;;;;22.40;10.68;;;2.50;99.90;;;;;;5109115;28;20050;-65
2024/01/05 01:07:48;;;;;;;20.40;11.25;;;2.60;99.90;;;;;;5109104;28;20036;-65
2024/01/05 01:10:14;;;;;;;24.85;11.15;;;2.50;99.90;;;;;;5090686;28;20051;-65
2024/01/05 01:12:41;;;;;;;19.80;10.43;;;2.50;99.90;;;;;;5106986;28;20140;-65
2024/01/05 01:15:07;;;;;;;25.48;10.90;;;3.50;99.90;;;;;;5107096;28;20192;-64
2024/01/05 01:17:33;;;;;;;23.02;10.88;;;2.50;99.90;;;;;;5108411;28;20091;-71
2024/01/05 01:19:59;;;;;;;22.85;11.43;;;2.70;99.90;;;;;;5107693;28;20043;-65
2024/01/05 01:22:25;;;;;;;23.85;10.98;;;2.50;99.90;;;;;;5107995;28;20051;-65
2024/01/05 01:24:51;;;;;;;21.98;12.23;;;2.40;99.90;;;;;;5108376;28;20050;-64
2024/01/05 01:27:16;;;;;;;21.58;11.15;;;2.50;99.90;;;;;;5086913;27;20073;-65
2024/01/05 01:29:42;;;;;;;29.80;11.90;;;2.40;99.90;;;;;;5086516;28;20088;-65
2024/01/05 01:32:11;;;;;;;20.17;10.70;;;2.40;99.90;;;;;;5104179;28;20793;-64
2024/01/05 01:34:38;;;;;;;22.42;12.73;;;2.40;99.90;;;;;;5104649;28;20039;-65
2024/01/05 01:37:04;;;;;;;25.58;12.35;;;2.70;99.90;;;;;;5087370;28;20393;-64
2024/01/05 01:39:30;;;;;;;25.45;12.00;;;2.50;99.90;;;;;;5104168;28;20063;-64
2024/01/05 01:41:56;;;;;;;22.40;10.82;;;2.40;99.90;;;;;;5104416;28;20054;-65
2024/01/05 01:44:22;;;;;;;20.42;11.57;;;2.40;99.90;;;;;;5104604;28;20047;-64
2024/01/05 01:46:51;;;;;;;19.10;10.60;;;2.40;99.90;;;;;;5103923;28;20046;-65
2024/01/05 01:49:17;;;;;;;20.60;10.57;;;2.40;99.90;;;;;;5105403;28;20134;-65
2024/01/05 01:51:45;;;;;;;26.38;11.80;;;2.70;99.90;;;;;;5105077;28;20152;-65
2024/01/05 01:54:11;;;;;;;23.08;10.05;;;2.40;99.90;;;;;;5104556;27;20575;-65
2024/01/05 01:56:37;;;;;;;20.70;10.77;;;2.50;99.90;;;;;;5103738;28;20085;-66
2024/01/05 01:59:05;;;;;;;20.65;10.80;;;2.40;99.90;;;;;;5104022;28;20432;-65
2024/01/05 02:01:30;;;;;;;21.80;10.32;;;2.40;99.90;;;;;;5104401;28;20530;-65
2024/01/05 02:03:56;;;;;;;20.23;9.88;;;2.40;99.90;;;;;;5103553;28;20043;-64
2024/01/05 02:06:22;;;;;;;21.67;10.13;;;2.40;99.90;;;;;;5103593;28;20051;-64
2024/01/05 02:08:48;;;;;;;20.95;10.98;;;2.40;99.90;;;;;;5086839;28;20040;-64
2024/01/05 02:11:14;;;;;;;22.17;10.68;;;2.40;99.90;;;;;;5103965;28;20538;-64
2024/01/05 02:13:40;;;;;;;22.35;9.68;;;2.40;99.90;;;;;;5101558;28;20047;-65
2024/01/05 02:16:06;;;;;;;22.10;10.18;;;2.40;99.90;;;;;;5103598;28;20051;-64
2024/01/05 02:18:32;;;;;;;26.98;10.77;;;2.40;99.90;;;;;;5103176;28;20035;-68
2024/01/05 02:21:00;;;;;;;19.92;9.23;;;2.40;99.90;;;;;;5103561;28;20044;-67
2024/01/05 02:23:32;;;;;;;23.35;11.60;;;2.40;99.90;;;;;;5103050;28;20040;-67
2024/01/05 02:25:58;;;;;;;21.90;9.70;;;2.40;99.90;;;;;;5103550;28;20130;-68
2024/01/05 02:28:25;;;;;;;22.30;10.15;;;2.40;99.90;;;;;;5087240;28;20043;-68
2024/01/05 02:30:54;;;;;;;21.40;9.88;;;2.40;99.90;;;;;;5104669;28;20085;-68
2024/01/05 02:33:21;;;;;;;20.92;9.55;;;2.80;99.90;;;;;;5103367;28;20056;-67
2024/01/05 02:35:47;;;;;;;19.98;9.82;;;3.00;99.90;;;;;;5104992;28;20694;-68
2024/01/05 02:38:13;;;;;;;24.02;9.63;;;2.30;99.90;;;;;;5103012;28;20049;-68
2024/01/05 02:40:38;;;;;;;25.45;10.20;;;2.30;99.90;;;;;;5102751;28;20087;-68
2024/01/05 02:43:04;;;;;;;19.58;9.38;;;2.30;99.90;;;;;;5102629;28;20461;-68
2024/01/05 02:45:31;;;;;;;16.63;8.45;;;2.30;99.90;;;;;;5102440;28;20035;-68
2024/01/05 02:47:57;;;;;;;18.92;9.95;;;2.30;99.90;;;;;;5102984;28;20051;-67
2024/01/05 02:50:22;;;;;;;18.92;9.90;;;2.30;99.90;;;;;;5102882;28;20568;-68
2024/01/05 02:52:48;;;;;;;23.30;9.52;;;2.30;99.90;;;;;;5101801;28;20039;-67
2024/01/05 02:55:14;;;;;;;21.90;10.40;;;2.30;99.90;;;;;;5102043;28;20044;-67
2024/01/05 02:57:41;;;;;;;22.17;9.68;;;2.30;99.90;;;;;;5102443;28;20071;-67
2024/01/05 03:00:07;;;;;;;24.85;10.00;;;2.30;99.90;;;;;;5103509;28;20048;-67
2024/01/05 03:02:33;;;;;;;19.88;10.48;;;2.30;99.90;;;;;;5067897;28;20063;-68
2024/01/05 03:04:59;;;;;;;26.70;9.70;;;2.20;99.90;;;;;;5102366;28;20057;-67
2024/01/05 03:07:25;;;;;;;25.13;10.88;;;2.40;99.90;;;;;;5101094;28;20549;-67
2024/01/05 03:09:54;;;;;;;24.30;11.80;;;2.20;99.90;;;;;;5103057;28;20085;-69
2024/01/05 03:12:19;;;;;;;23.05;11.00;;;2.20;99.90;;;;;;5102843;28;20063;-67
2024/01/05 03:14:45;;;;;;;29.23;11.45;;;2.30;99.90;;;;;;5101791;28;20032;-67
2024/01/05 03:17:11;;;;;;;22.17;11.13;;;2.20;99.90;;;;;;5102560;28;20116;-69
2024/01/05 03:19:36;;;;;;;22.90;10.48;;;2.20;99.90;;;;;;5103266;28;20067;-66
2024/01/05 03:22:03;;;;;;;24.95;11.35;;;2.30;99.90;;;;;;5102507;28;20126;-67
2024/01/05 03:24:28;;;;;;;21.83;10.95;;;2.20;99.90;;;;;;5104471;28;20039;-66
2024/01/05 03:26:54;;;;;;;26.25;11.40;;;2.40;99.90;;;;;;5102326;28;20104;-67
2024/01/05 03:29:20;;;;;;;24.52;11.27;;;2.30;99.90;;;;;;5103666;28;20039;-68
2024/01/05 03:31:48;;;;;;;24.52;11.95;;;2.40;99.90;;;;;;5102840;28;20538;-70
2024/01/05 03:34:14;;;;;;;25.08;11.63;;;3.30;99.90;;;;;;5085589;28;20150;-67
2024/01/05 03:36:40;;;;;;;28.85;12.93;;;2.30;99.90;;;;;;5101479;28;20047;-67
2024/01/05 03:39:07;;;;;;;20.58;11.98;;;2.30;99.90;;;;;;5084266;28;20490;-66
2024/01/05 03:41:33;;;;;;;25.70;12.10;;;2.50;99.90;;;;;;5101982;28;20053;-66
2024/01/05 03:43:59;;;;;;;30.98;12.65;;;2.30;99.90;;;;;;5101056;28;20477;-66
2024/01/05 03:46:25;;;;;;;27.05;11.98;;;2.60;99.90;;;;;;5099135;28;20089;-67
2024/01/05 03:48:51;;;;;;;25.00;11.50;;;2.30;99.90;;;;;;5101257;28;20035;-67
2024/01/05 03:51:17;;;;;;;24.80;11.90;;;2.90;99.90;;;;;;5101880;28;20082;-67
2024/01/05 03:53:42;;;;;;;22.55;10.77;;;2.30;99.90;;;;;;5101146;28;20774;-67
2024/01/05 03:56:08;;;;;;;22.60;11.15;;;2.80;99.90;;;;;;5102632;28;20077;-67
2024/01/05 03:58:34;;;;;;;26.80;11.95;;;2.30;99.90;;;;;;5102050;28;20510;-66
2024/01/05 04:01:04;;;;;;;26.98;11.93;;;2.40;99.90;;;;;;5102766;28;20051;-66
2024/01/05 04:03:30;;;;;;;18.67;10.20;;;3.10;99.90;;;;;;5103309;28;20054;-66
2024/01/05 04:05:56;;;;;;;22.45;11.27;;;2.30;99.90;;;;;;5102830;28;20055;-66
2024/01/05 04:08:22;;;;;;;22.88;10.93;;;2.30;99.90;;;;;;5103305;28;20070;-67
2024/01/05 04:10:48;;;;;;;22.10;11.02;;;2.30;99.90;;;;;;5102679;28;20051;-67
2024/01/05 04:13:14;;;;;;;21.23;10.77;;;2.60;99.90;;;;;;5107583;28;20276;-67
2024/01/05 04:15:40;;;;;;;21.00;10.85;;;2.30;99.90;;;;;;5102989;28;20122;-67
2024/01/05 04:18:06;;;;;;;24.13;11.57;;;2.30;99.90;;;;;;5105828;28;20036;-67
2024/01/05 04:20:33;;;;;;;25.00;10.90;;;2.30;99.90;;;;;;5106508;28;20059;-67
2024/01/05 04:23:00;;;;;;;21.17;10.85;;;2.60;99.90;;;;;;5104625;28;20118;-67
2024/01/05 04:25:25;;;;;;;23.85;10.85;;;2.30;99.90;;;;;;5106792;28;20090;-67
2024/01/05 04:27:52;;;;;;;21.67;10.32;;;2.30;99.90;;;;;;5104903;27;20566;-68
2024/01/05 04:30:20;;;;;;;20.60;9.82;;;2.30;99.90;;;;;;5105054;28;20068;-67
2024/01/05 04:32:47;;;;;;;23.25;10.43;;;2.30;99.90;;;;;;5104442;28;20493;-67
2024/01/05 04:35:12;;;;;;;22.92;10.68;;;2.30;99.90;;;;;;5088445;28;20492;-67
2024/01/05 04:37:38;;;;;;;19.63;9.50;;;2.30;99.90;;;;;;5105531;28;20044;-66
2024/01/05 04:40:06;;;;;;;18.08;9.18;;;2.30;99.90;;;;;;5104444;28;20122;-67
2024/01/05 04:42:32;;;;;;;19.70;9.10;;;2.30;99.90;;;;;;5106615;28;20047;-68
2024/01/05 04:44:58;;;;;;;20.88;8.77;;;2.30;99.90;;;;;;5087016;28;20096;-67
2024/01/05 04:47:24;;;;;;;17.20;8.30;;;2.70;99.90;;;;;;5106030;28;20035;-67
2024/01/05 04:49:50;;;;;;;18.35;8.75;;;2.30;99.90;;;;;;5106759;28;20043;-67
2024/01/05 04:52:16;;;;;;;16.20;8.65;;;2.30;99.90;;;;;;5104870;28;20054;-66
2024/01/05 04:54:41;;;;;;;18.23;8.15;;;2.30;99.90;;;;;;5106563;28;20040;-66
2024/01/05 04:57:07;;;;;;;17.55;9.38;;;2.40;99.90;;;;;;5104400;27;20528;-67
2024/01/05 04:59:33;;;;;;;19.88;9.35;;;2.60;99.90;;;;;;5104624;28;20621;-67
2024/01/05 05:01:59;;;;;;;18.63;9.20;;;2.40;99.90;;;;;;5104623;28;20039;-68
2024/01/05 05:04:25;;;;;;;19.27;8.52;;;2.40;99.90;;;;;;5106606;28;20396;-66
2024/01/05 05:06:53;;;;;;;19.13;9.55;;;2.40;99.90;;;;;;5103709;28;20044;-66
2024/01/05 05:09:19;;;;;;;16.17;9.20;;;2.80;99.90;;;;;;5085542;28;20043;-66
2024/01/05 05:11:45;;;;;;;17.58;8.23;;;2.40;99.90;;;;;;5106112;28;20063;-65
2024/01/05 05:14:11;;;;;;;16.90;8.68;;;2.40;99.90;;;;;;5104638;28;20047;-65
2024/01/05 05:16:36;;;;;;;18.38;8.52;;;2.70;99.90;;;;;;5103997;28;20515;-66
2024/01/05 05:19:02;;;;;;;17.90;9.15;;;2.40;99.90;;;;;;5104658;28;20051;-66
2024/01/05 05:21:29;;;;;;;16.52;9.13;;;2.40;99.90;;;;;;5105359;28;20492;-66
2024/01/05 05:23:55;;;;;;;16.90;8.48;;;2.40;99.90;;;;;;5104171;28;20074;-66
2024/01/05 05:26:21;;;;;;;18.90;9.43;;;2.40;99.90;;;;;;5087657;28;20099;-64
2024/01/05 05:28:47;;;;;;;17.75;8.77;;;2.40;99.90;;;;;;5104838;28;20112;-65
2024/01/05 05:31:13;;;;;;;19.05;8.90;;;2.40;99.90;;;;;;5106140;28;20699;-65
2024/01/05 05:33:39;;;;;;;17.95;9.13;;;2.40;99.90;;;;;;5104545;27;20419;-65
2024/01/05 05:36:05;;;;;;;19.10;9.27;;;2.40;99.90;;;;;;5104508;28;20051;-65
2024/01/05 05:38:31;;;;;;;18.75;10.00;;;2.40;99.90;;;;;;5102687;28;20047;-65
2024/01/05 05:40:57;;;;;;;18.85;9.32;;;2.40;99.90;;;;;;5105764;28;20067;-64
2024/01/05 05:43:23;;;;;;;19.98;9.32;;;2.40;99.90;;;;;;5103861;27;20089;-65
2024/01/05 05:45:49;;;;;;;17.15;9.23;;;2.40;99.90;;;;;;5104029;28;20035;-65
2024/01/05 05:48:15;;;;;;;17.27;9.40;;;2.40;99.90;;;;;;5104256;28;20138;-65
2024/01/05 05:50:41;;;;;;;17.20;9.02;;;2.40;99.90;;;;;;5087047;28;20042;-65
2024/01/05 05:53:08;;;;;;;23.00;9.65;;;2.40;99.90;;;;;;5104589;28;20432;-64
2024/01/05 05:55:34;;;;;;;20.00;10.10;;;2.40;99.90;;;;;;5104273;28;20043;-66
2024/01/05 05:57:59;;;;;;;19.85;9.82;;;2.40;99.90;;;;;;5106055;28;20392;-64
2024/01/05 06:00:26;;;;;;;20.23;10.32;;;2.40;99.90;;;;;;5103642;28;20052;-65
2024/01/05 06:02:51;;;;;;;18.45;9.57;;;2.50;99.90;;;;;;5105347;28;20138;-65
2024/01/05 06:05:17;;;;;;;17.30;9.35;;;2.50;99.90;;;;;;5105662;28;20158;-63
2024/01/05 06:07:42;;;;;;;21.70;10.55;;;2.50;99.90;;;;;;5103997;28;20043;-66
2024/01/05 06:10:08;;;;;;;23.80;10.13;;;2.50;99.90;;;;;;5086149;28;20040;-64
2024/01/05 06:12:34;;;;;;;20.23;10.27;;;2.50;99.90;;;;;;5104059;28;20043;-64
2024/01/05 06:15:00;;;;;;;19.17;10.13;;;2.80;99.90;;;;;;5102509;28;20178;-64
2024/01/05 06:17:26;;;;;;;24.35;10.30;;;2.50;99.90;;;;;;5102874;28;20487;-65
2024/01/05 06:19:51;;;;;;;21.20;10.40;;;2.50;99.90;;;;;;5105446;27;20127;-66
2024/01/05 06:22:17;;;;;;;19.92;9.70;;;2.50;99.90;;;;;;5103754;28;20087;-64
2024/01/05 06:24:44;;;;;;;19.90;11.63;;;2.70;99.90;;;;;;5086315;28;20048;-65
2024/01/05 06:27:11;;;;;;;21.15;10.80;;;2.50;99.90;;;;;;5100677;28;20039;-65
2024/01/05 06:29:37;;;;;;;17.75;10.25;;;2.50;99.90;;;;;;5101189;28;20044;-65
2024/01/05 06:32:03;;;;;;;22.13;10.77;;;2.50;99.90;;;;;;5101938;28;20063;-64
2024/01/05 06:34:29;;;;;;;20.73;11.63;;;2.50;99.90;;;;;;5103532;28;20078;-64
2024/01/05 06:36:56;;;;;;;23.50;12.38;;;2.50;99.90;;;;;;5102197;28;20047;-64
2024/01/05 06:39:21;;;;;;;22.83;11.35;;;2.50;99.90;;;;;;5102584;28;20048;-64
2024/01/05 06:41:47;;;;;;;20.27;10.73;;;2.50;99.90;;;;;;5102594;28;20071;-65
2024/01/05 06:44:13;;;;;;;21.58;11.73;;;2.50;99.90;;;;;;5104734;28;20048;-65
2024/01/05 06:46:38;;;;;;;23.10;11.55;;;2.50;99.90;;;;;;5104484;28;20791;-65
2024/01/05 06:49:04;;;;;;;21.13;11.45;;;2.50;99.90;;;;;;5104974;28;20090;-65
2024/01/05 06:51:39;;;;;;;26.65;12.35;;;2.50;99.90;;;;;;5104391;28;20035;-65
2024/01/05 06:54:05;;;;;;;23.55;11.85;;;2.60;99.90;;;;;;5103343;28;20121;-65
2024/01/05 06:56:32;;;;;;;28.42;12.50;;;2.60;99.90;;;;;;5085316;28;20805;-66
2024/01/05 06:59:05;;;;;;;23.95;12.88;;;2.60;99.90;;;;;;5104013;28;20050;-65
2024/01/05 07:01:34;;;;;;;24.10;12.48;;;2.60;99.90;;;;;;5104013;28;20036;-64
2024/01/05 07:03:59;;;;;;;22.83;12.10;;;2.60;99.90;;;;;;5103108;28;20142;-64
2024/01/05 07:06:25;;;;;;;23.48;12.75;;;2.60;99.90;;;;;;5091774;28;20057;-65
2024/01/05 07:08:51;;;;;;;21.88;12.18;;;2.60;99.90;;;;;;5100595;28;20040;-67
2024/01/05 07:11:24;;;;;;;21.38;11.63;;;2.60;99.90;;;;;;5095689;28;20039;-66
2024/01/05 07:13:50;;;;;;;24.52;11.88;;;2.80;99.90;;;;;;5098443;28;20038;-65
2024/01/05 07:16:23;;;;;;;22.42;10.95;;;2.60;99.90;;;;;;5085435;28;20492;-65
2024/01/05 07:18:49;;;;;;;19.30;11.48;;;2.70;99.90;;;;;;5097620;28;20574;-64
2024/01/05 07:21:15;;;;;;;22.00;12.05;;;2.70;99.90;;;;;;5102090;28;20032;-64
2024/01/05 07:23:42;;;;;;;20.77;11.48;;;2.70;99.90;;;;;;5099470;28;20040;-65
2024/01/05 07:26:09;;;;;;;22.35;11.63;;;2.70;99.90;;;;;;5101985;28;20503;-64
2024/01/05 07:28:36;;;;;;;19.90;10.45;;;2.70;99.90;;;;;;5079801;28;20074;-64
2024/01/05 07:31:05;;;;;;;20.65;11.35;;;2.70;99.90;;;;;;5100182;28;20408;-65
2024/01/05 07:33:34;;;;;;;27.33;11.73;;;3.00;99.90;;;;;;5083130;28;20126;-65
2024/01/05 07:36:06;;;;;;;22.20;11.57;;;2.70;99.90;;;;;;5080328;28;20408;-65
2024/01/05 07:38:35;;;;;;;23.25;11.48;;;3.70;99.90;;;;;;5099359;28;20126;-66
2024/01/05 07:41:02;;;;;;;24.38;11.95;;;2.70;99.90;;;;;;5098874;28;20112;-65
2024/01/05 07:43:28;;;;;;;21.42;12.23;;;2.70;99.90;;;;;;5102556;28;20043;-65
2024/01/05 07:45:54;;;;;;;22.02;11.55;;;2.80;99.90;;;;;;5099023;28;20076;-65
2024/01/05 07:48:31;;;;;;;20.65;10.77;;;2.80;99.90;;;;;;5098989;28;20488;-65
2024/01/05 07:51:02;;;;;;;22.30;12.70;;;2.80;99.90;;;;;;5098885;28;20043;-66
2024/01/05 07:53:28;;;;;;;24.27;12.27;;;3.50;99.90;;;;;;5101513;28;20074;-66
2024/01/05 07:55:54;;;;;;;24.70;12.18;;;2.80;99.90;;;;;;5098834;28;20055;-67
2024/01/05 07:58:19;;;;;;;25.02;13.15;;;2.80;99.90;;;;;;5082060;28;20078;-64
2024/01/05 08:00:46;;;;;;;21.65;12.30;;;3.20;99.90;;;;;;5097440;28;20044;-65
2024/01/05 08:03:12;;;;;;;26.80;14.13;;;2.80;99.90;;;;;;5101115;28;20032;-65
2024/01/05 08:05:39;;;;;;;23.05;12.93;;;3.60;99.90;;;;;;5098481;28;20498;-65
2024/01/05 08:08:06;;;;;;;27.65;12.98;;;2.80;99.90;;;;;;5098765;28;20047;-65
2024/01/05 08:10:32;;;;;;;26.92;13.10;;;2.90;99.90;;;;;;5099485;28;20048;-65
2024/01/05 08:12:57;;;;;;;26.38;13.32;;;3.00;99.90;;;;;;5097605;28;20043;-66
2024/01/05 08:15:24;;;;;;;24.38;13.70;;;3.00;99.90;;;;;;5092803;28;20899;-66
2024/01/05 08:17:50;;;;;;;27.58;15.23;;;3.20;99.90;;;;;;5095436;28;20040;-66
2024/01/05 08:20:16;;;;;;;26.88;14.38;;;3.10;99.90;;;;;;5090556;28;20052;-66
2024/01/05 08:22:43;;;;;;;28.15;15.00;;;2.70;99.90;;;;;;5098575;28;20043;-66
2024/01/05 08:25:09;;;;;;;29.50;14.35;;;2.90;99.90;;;;;;5077242;28;20078;-66
2024/01/05 08:27:35;;;;;;;29.55;15.00;;;3.10;99.90;;;;;;5087925;28;20181;-66
2024/01/05 08:30:01;;;;;;;31.50;15.82;;;3.00;99.90;;;;;;5096344;28;20032;-66
2024/01/05 08:32:27;;;;;;;36.85;16.90;;;3.00;99.90;;;;;;5080652;28;20044;-67
2024/01/05 08:34:52;;;;;;;33.55;16.85;;;3.00;99.90;;;;;;5084219;28;20040;-66
2024/01/05 08:37:18;;;;;;;29.38;15.60;;;3.10;99.90;;;;;;5083589;28;20071;-66
2024/01/05 08:39:44;;;;;;;30.10;15.95;;;3.00;99.90;;;;;;5065906;28;20048;-66
2024/01/05 08:42:10;;;;;;;33.08;17.02;;;3.00;99.90;;;;;;5066525;28;20080;-66
2024/01/05 08:44:36;;;;;;;31.42;15.63;;;3.00;99.90;;;;;;5079580;28;20043;-67
2024/01/05 08:47:02;;;;;;;36.83;16.45;;;3.00;99.90;;;;;;5078225;28;20079;-66
2024/01/05 08:49:28;;;;;;;34.58;17.77;;;3.00;99.90;;;;;;5081139;28;21017;-67
2024/01/05 08:51:54;;;;;;;32.30;16.92;;;3.80;99.90;;;;;;5079883;28;20044;-67
2024/01/05 08:54:23;;;;;;;33.50;17.63;;;3.10;99.90;;;;;;5062571;28;20044;-66
2024/01/05 08:56:49;;;;;;;34.83;17.23;;;3.30;99.90;;;;;;5071706;28;20048;-67
2024/01/05 08:59:16;;;;;;;34.22;17.00;;;3.10;99.90;;;;;;5070624;28;20047;-66
2024/01/05 09:01:42;;;;;;;30.40;16.23;;;3.10;99.90;;;;;;5084317;28;20122;-66
2024/01/05 09:04:10;;;;;;;34.08;17.98;;;3.20;99.90;;;;;;5067521;28;20051;-67
2024/01/05 09:06:40;;;;;;;27.73;15.02;;;3.80;99.90;;;;;;5083664;28;20040;-67
2024/01/05 09:09:06;;;;;;;31.75;16.02;;;3.20;99.90;;;;;;5085558;28;20059;-67
2024/01/05 09:11:32;;;;;;;27.33;14.40;;;3.20;99.90;;;;;;5070828;28;20239;-67
2024/01/05 09:13:58;;;;;;;30.33;15.07;;;3.20;99.90;;;;;;5087741;28;20824;-68
2024/01/05 09:16:24;;;;;;;27.63;14.15;;;3.90;99.90;;;;;;5084888;27;20036;-66
2024/01/05 09:18:51;;;;;;;25.67;14.50;;;3.20;99.90;;;;;;5066566;28;20048;-66
2024/01/05 09:21:25;;;;;;;29.00;14.23;;;3.20;99.90;;;;;;5086954;27;20044;-67
2024/01/05 09:23:54;;;;;;;27.02;13.98;;;3.50;99.90;;;;;;5083258;28;20048;-66
2024/01/05 09:26:20;;;;;;;25.02;12.65;;;3.60;99.90;;;;;;5118338;27;20044;-67
2024/01/05 09:28:47;;;;;;;21.95;11.32;;;3.70;99.90;;;;;;5068922;28;20055;-68
2024/01/05 09:31:12;;;;;;;25.30;12.48;;;3.30;99.90;;;;;;5073193;28;20052;-66
2024/01/05 09:33:38;;;;;;;23.48;11.50;;;3.30;99.90;;;;;;5082494;27;20120;-65
2024/01/05 09:36:05;;;;;;;21.52;10.80;;;3.30;99.90;;;;;;5061246;28;20051;-65
2024/01/05 09:38:30;;;;;;;20.35;10.55;;;3.30;99.90;;;;;;5063071;27;20102;-65
2024/01/05 09:40:56;;;;;;;24.58;11.90;;;3.30;99.90;;;;;;5077578;28;20039;-65
2024/01/05 09:43:25;;;;;;;21.30;11.15;;;3.40;99.90;;;;;;5077262;28;20051;-65
2024/01/05 09:45:52;;;;;;;20.13;11.43;;;3.30;99.90;;;;;;5077708;28;20048;-66
2024/01/05 09:48:24;;;;;;;22.83;10.60;;;3.40;99.90;;;;;;5080549;27;20745;-65
2024/01/05 09:50:57;;;;;;;18.42;10.50;;;3.40;99.90;;;;;;5077375;28;20148;-65
2024/01/05 09:53:23;;;;;;;19.83;11.15;;;3.40;99.90;;;;;;5055416;28;20043;-66
2024/01/05 09:55:50;;;;;;;19.63;10.18;;;3.40;99.90;;;;;;5055804;28;20075;-66
2024/01/05 09:58:18;;;;;;;18.88;9.88;;;3.40;99.90;;;;;;5061725;28;20431;-66
2024/01/05 10:00:48;;;;;;;21.35;9.90;;;3.40;99.90;;;;;;5074243;27;20047;-66
2024/01/05 10:03:24;;;;;;;17.73;8.80;;;3.40;99.90;;;;;;5103163;27;20043;-66
2024/01/05 10:05:53;;;;;;;18.00;10.23;;;3.40;99.90;;;;;;5073427;28;20052;-66
2024/01/05 10:08:21;;;;;;;18.05;9.57;;;3.50;99.90;;;;;;5075334;28;20617;-66
2024/01/05 10:10:52;;;;;;;19.55;10.25;;;3.50;99.90;;;;;;5104136;27;20062;-65
2024/01/05 10:13:21;;;;;;;18.23;10.10;;;3.50;99.90;;;;;;5053503;28;20044;-65
2024/01/05 10:16:00;;;;;;;19.77;10.13;;;3.50;99.90;;;;;;5087003;28;20039;-65
2024/01/05 10:18:28;;;;;;;19.92;10.57;;;3.60;99.90;;;;;;5077417;27;20052;-66
2024/01/05 10:20:55;;;;;;;21.92;10.38;;;3.70;99.90;;;;;;5065902;28;20040;-66
2024/01/05 10:23:21;;;;;;;20.60;10.00;;;3.80;99.90;;;;;;5070744;28;20048;-67
2024/01/05 10:25:47;;;;;;;20.48;9.55;;;3.70;99.90;;;;;;5078206;27;20043;-66
2024/01/05 10:28:23;;;;;;;19.85;10.63;;;3.80;99.90;;;;;;5071724;28;20043;-66
2024/01/05 10:30:51;;;;;;;20.67;10.77;;;3.70;99.90;;;;;;5068257;27;20486;-67
2024/01/05 10:33:18;;;;;;;21.95;10.95;;;4.20;99.90;;;;;;5066432;27;20055;-65
2024/01/05 10:35:44;;;;;;;24.65;12.07;;;3.80;99.90;;;;;;5073715;28;20462;-66
2024/01/05 10:38:11;;;;;;;24.00;11.52;;;3.80;99.90;;;;;;5088414;28;20476;-65
2024/01/05 10:40:37;;;;;;;23.20;11.63;;;3.80;99.90;;;;;;5079877;28;20054;-66
2024/01/05 10:43:14;;;;;;;23.13;11.15;;;3.80;99.90;;;;;;5074719;28;20051;-65
2024/01/05 10:45:41;;;;;;;22.33;12.02;;;3.80;99.90;;;;;;5069019;28;20039;-66
2024/01/05 10:48:09;;;;;;;27.38;11.73;;;3.80;99.90;;;;;;5080773;28;20035;-66
2024/01/05 10:50:37;;;;;;;23.35;12.23;;;3.80;99.90;;;;;;5071436;28;20051;-66
2024/01/05 10:53:04;;;;;;;21.23;11.50;;;3.90;99.90;;;;;;5077827;28;20557;-65
2024/01/05 10:55:33;;;;;;;20.40;11.73;;;3.90;99.90;;;;;;5080864;28;20089;-65
2024/01/05 10:57:59;;;;;;;24.63;12.70;;;3.90;99.90;;;;;;5066571;28;20048;-65
2024/01/05 11:00:25;;;;;;;21.55;11.95;;;4.00;99.90;;;;;;5104259;27;21118;-65
2024/01/05 11:02:55;;;;;;;25.10;13.23;;;4.00;99.90;;;;;;5076517;28;20039;-66
2024/01/05 11:05:24;;;;;;;21.70;12.00;;;4.00;99.90;;;;;;5078962;28;20613;-66
2024/01/05 11:07:50;;;;;;;24.30;12.18;;;4.00;99.90;;;;;;5079700;28;20044;-66
2024/01/05 11:10:37;;;;;;;25.30;12.20;;;4.10;99.90;;;;;;5060684;28;20067;-66
2024/01/05 11:13:25;;;;;;;24.48;12.00;;;4.10;99.90;;;;;;5076617;27;20047;-65
2024/01/05 11:16:09;;;;;;;24.73;11.88;;;4.10;99.90;;;;;;5072909;28;20069;-66
2024/01/05 11:18:42;;;;;;;22.27;11.07;;;4.10;99.90;;;;;;5063999;28;20047;-66
2024/01/05 11:21:17;;;;;;;22.98;11.27;;;4.10;99.90;;;;;;5097417;28;20086;-66
2024/01/05 11:23:44;;;;;;;21.33;11.48;;;4.20;99.90;;;;;;5096696;28;20055;-66
2024/01/05 11:26:34;;;;;;;20.83;11.77;;;4.20;99.90;;;;;;5083253;28;20047;-67
2024/01/05 11:29:01;;;;;;;20.90;11.35;;;4.20;99.90;;;;;;5094802;28;20100;-67
2024/01/05 11:31:45;;;;;;;21.02;10.80;;;4.20;99.90;;;;;;5128301;27;20438;-66
2024/01/05 11:34:35;;;;;;;19.65;11.25;;;4.20;99.90;;;;;;5096533;28;20074;-67
2024/01/05 11:37:05;;;;;;;19.83;11.18;;;4.20;99.90;;;;;;5085919;28;20047;-66
2024/01/05 11:39:47;;;;;;;20.00;11.23;;;4.30;99.90;;;;;;5085326;28;20043;-67
2024/01/05 11:42:25;;;;;;;19.98;11.10;;;4.30;99.90;;;;;;5089906;28;20483;-67
2024/01/05 11:45:11;;;;;;;20.77;10.77;;;4.30;99.90;;;;;;5070599;28;20051;-66
2024/01/05 11:47:44;;;;;;;24.10;11.77;;;4.30;99.90;;;;;;5084268;28;20044;-66
2024/01/05 11:50:26;;;;;;;23.48;11.73;;;4.40;99.90;;;;;;5083175;28;22232;-66
2024/01/05 11:53:14;;;;;;;22.67;11.30;;;4.50;99.90;;;;;;5090531;28;20131;-67
2024/01/05 11:55:51;;;;;;;22.50;11.27;;;4.30;99.90;;;;;;5088277;28;21057;-66
2024/01/05 11:58:22;;;;;;;22.98;12.00;;;4.30;99.90;;;;;;5086962;28;22498;-66
2024/01/05 12:00:49;;;;;;;24.35;12.38;;;4.30;99.90;;;;;;5095443;28;20047;-66
2024/01/05 12:03:17;;;;;;;29.08;12.77;;;4.30;99.90;;;;;;5095514;28;20052;-67
2024/01/05 12:05:43;;;;;;;22.20;12.80;;;4.40;99.90;;;;;;5091380;28;20169;-65
2024/01/05 12:08:13;;;;;;;23.70;12.38;;;4.40;99.90;;;;;;5110794;28;20040;-66
2024/01/05 12:10:40;;;;;;;25.00;12.65;;;4.40;99.90;;;;;;5098182;28;20046;-66
2024/01/05 12:13:06;;;;;;;23.98;12.57;;;4.40;99.90;;;;;;5082241;28;20052;-66
2024/01/05 12:15:33;;;;;;;25.95;13.48;;;4.60;99.90;;;;;;5081295;28;20655;-66
2024/01/05 12:18:03;;;;;;;24.42;12.63;;;4.40;99.90;;;;;;5084348;28;20123;-66
2024/01/05 12:20:29;;;;;;;25.27;13.07;;;4.50;99.90;;;;;;5084371;28;20051;-66
2024/01/05 12:22:55;;;;;;;23.92;13.15;;;4.50;99.90;;;;;;5081990;28;20047;-65
2024/01/05 12:25:21;;;;;;;23.80;13.05;;;4.50;99.90;;;;;;5083467;28;20040;-66
2024/01/05 12:27:59;;;;;;;22.45;12.73;;;4.50;99.90;;;;;;5091011;28;20043;-66
2024/01/05 12:30:25;;;;;;;25.10;13.05;;;4.50;99.90;;;;;;5084817;28;20059;-66
2024/01/05 12:32:52;;;;;;;25.88;13.10;;;4.70;99.90;;;;;;5087037;27;20147;-68
2024/01/05 12:35:18;;;;;;;26.70;12.43;;;4.60;99.90;;;;;;5089044;28;20098;-65
2024/01/05 12:37:52;;;;;;;24.73;11.98;;;4.60;99.90;;;;;;5085341;28;20056;-65
2024/01/05 12:40:28;;;;;;;22.33;11.55;;;4.60;99.90;;;;;;5089130;28;20047;-65